createdAt,value
2023-01-27T00:01:06.143Z,12.63
2023-01-27T00:03:34.139Z,13.40
2023-01-27T00:06:01.329Z,13.50
2023-01-27T00:08:29.925Z,15.43
2023-01-27T00:11:19.256Z,14.13
2023-01-27T00:13:46.305Z,11.53
2023-01-27T00:16:13.379Z,11.03
2023-01-27T00:18:40.434Z,12.43
2023-01-27T00:21:26.030Z,13.97
2023-01-27T00:24:12.217Z,15.00
2023-01-27T00:26:39.235Z,14.77
2023-01-27T00:29:06.287Z,14.77
2023-01-27T00:31:51.845Z,14.83
2023-01-27T00:34:19.230Z,13.17
2023-01-27T00:36:46.455Z,15.17
2023-01-27T00:39:14.303Z,14.50
2023-01-27T00:41:42.025Z,13.37
2023-01-27T00:44:13.685Z,11.87
2023-01-27T00:46:42.006Z,9.53
2023-01-27T00:49:10.717Z,10.13
2023-01-27T00:51:38.268Z,12.23
2023-01-27T00:54:05.800Z,10.97
2023-01-27T00:56:34.559Z,12.10
2023-01-27T00:59:01.879Z,14.07
2023-01-27T01:01:29.816Z,13.93
2023-01-27T01:03:59.561Z,9.27
2023-01-27T01:07:03.999Z,10.70
2023-01-27T01:09:30.983Z,10.17
2023-01-27T01:11:57.983Z,8.47
2023-01-27T01:14:24.917Z,7.43
2023-01-27T01:16:52.158Z,7.80
2023-01-27T01:19:19.698Z,7.63
2023-01-27T01:21:46.670Z,6.30
2023-01-27T01:24:14.071Z,8.10
2023-01-27T01:26:41.352Z,8.83
2023-01-27T01:29:08.363Z,10.07
2023-01-27T01:31:35.500Z,10.20
2023-01-27T01:34:02.533Z,8.97
2023-01-27T01:36:29.821Z,10.17
2023-01-27T01:38:58.026Z,10.87
2023-01-27T01:41:26.639Z,7.67
2023-01-27T01:43:54.052Z,10.13
2023-01-27T01:46:21.365Z,6.63
2023-01-27T01:48:58.099Z,6.63
2023-01-27T01:51:37.404Z,6.20
2023-01-27T01:54:09.746Z,8.03
2023-01-27T01:57:01.437Z,8.30
2023-01-27T01:59:55.077Z,10.23
2023-01-27T02:02:26.315Z,8.90
2023-01-27T02:05:05.313Z,10.90
2023-01-27T02:07:54.063Z,9.67
2023-01-27T02:10:21.058Z,11.87
2023-01-27T02:12:48.038Z,9.07
2023-01-27T02:15:15.636Z,9.27
2023-01-27T02:17:43.344Z,12.30
2023-01-27T02:20:41.322Z,11.17
2023-01-27T02:23:40.895Z,13.87
2023-01-27T02:26:17.418Z,8.03
2023-01-27T02:28:44.699Z,10.80
2023-01-27T02:31:12.117Z,9.97
2023-01-27T02:33:39.489Z,35.63
2023-01-27T02:36:12.177Z,12.60
2023-01-27T02:38:51.733Z,11.03
2023-01-27T02:41:50.893Z,12.50
2023-01-27T02:44:18.418Z,11.90
2023-01-27T02:46:45.658Z,10.13
2023-01-27T02:49:13.019Z,11.57
2023-01-27T02:51:40.263Z,11.23
2023-01-27T02:54:07.577Z,10.70
2023-01-27T02:56:35.979Z,9.70
2023-01-27T02:59:03.057Z,13.23
2023-01-27T03:01:33.025Z,10.23
2023-01-27T03:04:00.433Z,11.40
2023-01-27T03:06:27.467Z,9.57
2023-01-27T03:08:54.580Z,8.93
2023-01-27T03:11:40.196Z,10.57
2023-01-27T03:14:09.358Z,9.37
2023-01-27T03:16:55.182Z,8.90
2023-01-27T03:19:22.228Z,11.50
2023-01-27T03:21:53.302Z,10.63
2023-01-27T03:24:21.200Z,9.77
2023-01-27T03:26:48.528Z,10.47
2023-01-27T03:29:34.031Z,11.37
2023-01-27T03:32:01.023Z,11.80
2023-01-27T03:34:28.254Z,13.93
2023-01-27T03:37:14.060Z,12.10
2023-01-27T03:40:00.155Z,12.33
2023-01-27T03:42:46.112Z,11.33
2023-01-27T03:45:31.674Z,12.20
2023-01-27T03:47:58.678Z,13.73
2023-01-27T03:50:38.168Z,11.37
2023-01-27T03:53:06.539Z,14.10
2023-01-27T03:55:35.460Z,11.63
2023-01-27T03:58:18.565Z,11.90
2023-01-27T04:00:55.071Z,19.23
2023-01-27T04:03:42.865Z,20.27
2023-01-27T04:06:41.882Z,19.10
2023-01-27T04:09:10.585Z,26.13
2023-01-27T04:11:56.261Z,18.63
2023-01-27T04:14:45.822Z,22.50
2023-01-27T04:17:17.855Z,21.73
2023-01-27T04:19:45.721Z,20.13
2023-01-27T04:22:14.277Z,20.50
2023-01-27T04:24:42.133Z,21.00
2023-01-27T04:27:12.390Z,23.03
2023-01-27T04:29:41.808Z,24.57
2023-01-27T04:32:11.022Z,24.80
2023-01-27T04:34:39.166Z,25.10
2023-01-27T04:37:08.158Z,23.93
2023-01-27T04:39:36.363Z,22.37
2023-01-27T04:42:03.872Z,21.03
2023-01-27T04:44:31.480Z,22.70
2023-01-27T04:46:58.593Z,24.20
2023-01-27T04:49:27.256Z,24.77
2023-01-27T04:51:55.349Z,21.13
2023-01-27T04:54:22.800Z,21.17
2023-01-27T04:57:01.577Z,22.93
2023-01-27T04:59:29.104Z,23.27
2023-01-27T05:01:56.727Z,23.07
2023-01-27T05:04:24.663Z,21.10
2023-01-27T05:06:51.872Z,24.90
2023-01-27T05:09:19.174Z,24.53
2023-01-27T05:11:46.703Z,20.70
2023-01-27T05:14:14.788Z,23.47
2023-01-27T05:16:41.829Z,23.47
2023-01-27T05:19:09.916Z,22.30
2023-01-27T05:21:37.018Z,20.80
2023-01-27T05:24:04.549Z,28.00
2023-01-27T05:26:31.839Z,20.70
2023-01-27T05:28:59.322Z,19.20
2023-01-27T05:31:31.965Z,24.53
2023-01-27T05:34:00.837Z,19.17
2023-01-27T05:36:29.015Z,21.77
2023-01-27T05:38:58.241Z,20.83
2023-01-27T05:41:26.757Z,20.30
2023-01-27T05:43:56.048Z,21.87
2023-01-27T05:46:26.134Z,19.67
2023-01-27T05:48:55.754Z,21.00
2023-01-27T05:51:24.943Z,20.97
2023-01-27T05:53:54.259Z,17.63
2023-01-27T05:56:23.064Z,20.63
2023-01-27T05:58:50.027Z,19.83
2023-01-27T06:01:22.834Z,20.00
2023-01-27T06:03:50.213Z,20.23
2023-01-27T06:06:19.471Z,20.80
2023-01-27T06:08:48.023Z,19.57
2023-01-27T06:11:15.981Z,17.47
2023-01-27T06:13:43.084Z,18.60
2023-01-27T06:16:12.839Z,20.80
2023-01-27T06:18:40.778Z,17.70
2023-01-27T06:21:10.109Z,19.10
2023-01-27T06:23:38.487Z,18.37
2023-01-27T06:26:17.465Z,15.80
2023-01-27T06:28:45.779Z,18.70
2023-01-27T06:31:16.224Z,18.50
2023-01-27T06:33:43.682Z,16.13
2023-01-27T06:36:13.394Z,16.40
2023-01-27T06:38:40.793Z,19.50
2023-01-27T06:41:08.020Z,24.53
2023-01-27T06:43:35.054Z,19.67
2023-01-27T06:46:05.234Z,17.93
2023-01-27T06:48:33.987Z,19.23
2023-01-27T06:51:01.542Z,17.33
2023-01-27T06:53:28.592Z,18.60
2023-01-27T06:55:58.113Z,21.27
2023-01-27T06:58:25.998Z,17.93
2023-01-27T07:00:53.797Z,15.90
2023-01-27T07:03:21.304Z,16.53
2023-01-27T07:05:48.303Z,17.03
2023-01-27T07:08:15.433Z,18.47
2023-01-27T07:10:42.710Z,16.53
2023-01-27T07:13:14.836Z,19.33
2023-01-27T07:15:42.235Z,17.67
2023-01-27T07:18:14.635Z,16.73
2023-01-27T07:20:42.126Z,19.43
2023-01-27T07:23:10.436Z,18.13
2023-01-27T07:25:37.987Z,17.60
2023-01-27T07:28:06.504Z,17.27
2023-01-27T07:30:34.677Z,17.00
2023-01-27T07:33:19.854Z,17.50
2023-01-27T07:35:50.181Z,20.10
2023-01-27T07:38:17.498Z,19.67
2023-01-27T07:40:44.446Z,17.80
2023-01-27T07:43:12.456Z,18.37
2023-01-27T07:45:39.816Z,19.70
2023-01-27T07:48:08.597Z,23.57
2023-01-27T07:50:36.580Z,17.47
2023-01-27T07:53:05.078Z,16.00
2023-01-27T07:55:33.469Z,17.47
2023-01-27T07:58:00.671Z,16.27
2023-01-27T08:00:29.142Z,17.77
2023-01-27T08:02:57.747Z,18.03
2023-01-27T08:05:25.301Z,18.50
2023-01-27T08:07:54.057Z,17.80
2023-01-27T08:10:21.751Z,15.33
2023-01-27T08:12:48.884Z,18.13
2023-01-27T08:15:18.837Z,15.70
2023-01-27T08:17:57.004Z,15.50
2023-01-27T08:20:26.772Z,15.67
2023-01-27T08:22:53.887Z,14.90
2023-01-27T08:25:21.703Z,15.03
2023-01-27T08:27:53.519Z,15.03
2023-01-27T08:30:21.179Z,14.60
2023-01-27T08:32:48.710Z,13.43
2023-01-27T08:35:15.837Z,14.87
2023-01-27T08:37:42.873Z,11.37
2023-01-27T08:40:11.074Z,11.57
2023-01-27T08:42:38.588Z,10.17
2023-01-27T08:45:06.321Z,10.73
2023-01-27T08:47:33.530Z,7.93
2023-01-27T08:50:00.573Z,10.47
2023-01-27T08:52:30.968Z,9.37
2023-01-27T08:54:58.855Z,10.17
2023-01-27T08:57:26.271Z,11.37
2023-01-27T08:59:53.346Z,10.77
2023-01-27T09:02:22.666Z,11.90
2023-01-27T09:04:49.940Z,11.80
2023-01-27T09:07:18.180Z,16.23
2023-01-27T09:09:51.224Z,15.30
2023-01-27T09:12:21.105Z,14.77
2023-01-27T09:14:48.407Z,14.83
2023-01-27T09:17:19.805Z,18.13
2023-01-27T09:19:47.595Z,15.00
2023-01-27T09:22:14.864Z,12.43
2023-01-27T09:24:41.857Z,12.83
2023-01-27T09:27:09.061Z,11.23
2023-01-27T09:29:37.065Z,13.13
2023-01-27T09:32:04.873Z,14.00
2023-01-27T09:34:32.153Z,9.57
2023-01-27T09:37:05.022Z,12.57
2023-01-27T09:39:35.543Z,11.87
2023-01-27T09:42:28.733Z,11.33
2023-01-27T09:45:10.917Z,12.63
2023-01-27T09:48:03.095Z,12.93
2023-01-27T09:50:38.214Z,11.20
2023-01-27T09:53:19.536Z,11.37
2023-01-27T09:56:07.111Z,11.50
2023-01-27T09:59:18.777Z,12.50
2023-01-27T10:01:57.718Z,10.57
2023-01-27T10:04:59.464Z,10.10
2023-01-27T10:07:44.445Z,10.63
2023-01-27T10:10:30.865Z,9.47
2023-01-27T10:13:22.906Z,10.20
2023-01-27T10:16:05.184Z,7.33
2023-01-27T10:18:44.316Z,7.33
2023-01-27T10:21:43.390Z,9.83
2023-01-27T10:24:51.012Z,7.07
2023-01-27T10:27:24.071Z,7.60
2023-01-27T10:30:13.232Z,11.30
2023-01-27T10:32:52.455Z,8.57
2023-01-27T10:35:39.865Z,7.07
2023-01-27T10:38:30.751Z,10.83
2023-01-27T10:41:34.375Z,10.83
2023-01-27T10:44:23.291Z,11.60
2023-01-27T10:47:04.197Z,11.87
2023-01-27T10:49:56.259Z,11.33
2023-01-27T10:52:46.635Z,11.63
2023-01-27T10:55:17.064Z,10.77
2023-01-27T10:57:54.171Z,14.00
2023-01-27T11:01:18.907Z,10.33
2023-01-27T11:03:42.975Z,12.33
2023-01-27T11:06:21.877Z,12.83
2023-01-27T11:08:54.423Z,10.87
2023-01-27T11:11:43.858Z,14.43
2023-01-27T11:14:27.662Z,11.23
2023-01-27T11:17:04.044Z,11.83
2023-01-27T11:19:38.377Z,11.80
2023-01-27T11:22:13.885Z,11.83
2023-01-27T11:25:09.251Z,13.23
2023-01-27T11:28:03.664Z,11.83
2023-01-27T11:31:10.809Z,11.97
2023-01-27T11:34:06.528Z,10.47
2023-01-27T11:36:36.662Z,11.23
2023-01-27T11:39:06.880Z,9.40
2023-01-27T11:41:51.543Z,13.03
2023-01-27T11:44:21.342Z,10.83
2023-01-27T11:46:50.818Z,12.10
2023-01-27T11:49:30.718Z,13.33
2023-01-27T11:52:14.879Z,12.13
2023-01-27T11:55:05.763Z,13.37
2023-01-27T11:57:33.757Z,11.23
2023-01-27T12:00:03.306Z,12.00
2023-01-27T12:02:36.261Z,11.50
2023-01-27T12:05:25.081Z,12.43
2023-01-27T12:07:59.187Z,14.23
2023-01-27T12:10:43.996Z,14.43
2023-01-27T12:13:25.025Z,14.17
2023-01-27T12:15:56.874Z,12.17
2023-01-27T12:18:24.187Z,37.80
2023-01-27T12:20:59.185Z,17.67
2023-01-27T12:23:34.380Z,11.23
2023-01-27T12:26:10.819Z,12.03
2023-01-27T12:28:52.388Z,10.40
2023-01-27T12:31:33.145Z,13.07
2023-01-27T12:34:17.393Z,12.87
2023-01-27T12:36:45.498Z,12.77
2023-01-27T12:39:49.402Z,14.27
2023-01-27T12:42:38.381Z,13.47
2023-01-27T12:45:22.819Z,10.03
2023-01-27T12:48:01.720Z,12.23
2023-01-27T12:50:34.976Z,14.63
2023-01-27T12:53:14.042Z,13.77
2023-01-27T12:56:01.457Z,14.63
2023-01-27T12:58:47.080Z,11.83
2023-01-27T13:01:32.874Z,14.17
2023-01-27T13:04:23.654Z,16.20
2023-01-27T13:07:03.863Z,13.60
2023-01-27T13:09:45.623Z,12.67
2023-01-27T13:12:31.839Z,16.23
2023-01-27T13:15:15.643Z,13.47
2023-01-27T13:17:45.817Z,12.37
2023-01-27T13:20:28.483Z,11.77
2023-01-27T13:23:02.512Z,13.07
2023-01-27T13:26:11.433Z,16.63
2023-01-27T13:28:54.443Z,11.10
2023-01-27T13:31:52.911Z,13.60
2023-01-27T13:34:38.449Z,13.73
2023-01-27T13:37:24.740Z,11.37
2023-01-27T13:40:04.088Z,12.27
2023-01-27T13:42:44.700Z,11.03
2023-01-27T13:45:41.881Z,13.00
2023-01-27T13:48:33.667Z,11.00
2023-01-27T13:51:18.427Z,12.40
2023-01-27T13:53:47.933Z,15.57
2023-01-27T13:56:21.184Z,16.60
2023-01-27T13:58:53.774Z,17.73
2023-01-27T14:01:54.969Z,16.03
2023-01-27T14:04:37.825Z,19.63
2023-01-27T14:07:29.283Z,17.17
2023-01-27T14:10:21.262Z,21.50
2023-01-27T14:13:16.526Z,18.03
2023-01-27T14:15:49.846Z,18.17
2023-01-27T14:18:28.283Z,18.50
2023-01-27T14:21:13.358Z,16.97
2023-01-27T14:24:01.007Z,16.27
2023-01-27T14:26:47.837Z,14.60
2023-01-27T14:29:15.071Z,17.40
2023-01-27T14:31:46.885Z,17.03
2023-01-27T14:34:31.057Z,15.17
2023-01-27T14:37:07.168Z,14.53
2023-01-27T14:39:57.417Z,14.80
2023-01-27T14:42:55.062Z,16.33
2023-01-27T14:45:50.861Z,16.23
2023-01-27T14:48:43.456Z,14.00
2023-01-27T14:51:34.255Z,13.37
2023-01-27T14:54:26.123Z,14.57
2023-01-27T14:57:08.178Z,15.10
2023-01-27T14:59:50.446Z,18.60
2023-01-27T15:02:39.592Z,18.50
2023-01-27T15:05:14.876Z,15.20
2023-01-27T15:08:05.409Z,15.77
2023-01-27T15:10:34.040Z,15.20
2023-01-27T15:13:10.455Z,16.83
2023-01-27T15:15:50.928Z,18.20
2023-01-27T15:18:36.297Z,16.00
2023-01-27T15:21:28.204Z,16.37
2023-01-27T15:23:58.413Z,19.57
2023-01-27T15:26:28.918Z,16.13
2023-01-27T15:28:58.151Z,18.20
2023-01-27T15:31:30.332Z,17.17
2023-01-27T15:34:03.813Z,17.67
2023-01-27T15:37:01.227Z,18.13
2023-01-27T15:39:40.350Z,16.93
2023-01-27T15:42:11.695Z,17.57
2023-01-27T15:44:41.283Z,17.40
2023-01-27T15:47:19.250Z,19.00
2023-01-27T15:49:49.915Z,16.77
2023-01-27T15:52:31.878Z,18.47
2023-01-27T15:55:02.695Z,18.00
2023-01-27T15:57:38.702Z,19.27
2023-01-27T16:00:30.768Z,18.33
2023-01-27T16:03:02.889Z,18.87
2023-01-27T16:05:37.793Z,18.50
2023-01-27T16:08:15.359Z,19.77
2023-01-27T16:10:43.191Z,19.63
2023-01-27T16:13:30.856Z,20.63
2023-01-27T16:16:19.842Z,20.60
2023-01-27T16:19:11.084Z,18.90
2023-01-27T16:21:57.812Z,20.17
2023-01-27T16:24:44.660Z,21.83
2023-01-27T16:27:14.626Z,22.40
2023-01-27T16:29:59.477Z,19.20
2023-01-27T16:32:38.233Z,17.97
2023-01-27T16:35:16.102Z,18.63
2023-01-27T16:38:22.928Z,22.80
2023-01-27T16:41:04.458Z,24.70
2023-01-27T16:43:50.123Z,22.57
2023-01-27T16:46:32.322Z,21.03
2023-01-27T16:49:01.607Z,21.40
2023-01-27T16:51:29.642Z,19.23
2023-01-27T16:54:00.204Z,19.53
2023-01-27T16:56:35.797Z,17.47
2023-01-27T16:59:10.416Z,19.17
2023-01-27T17:01:50.739Z,22.03
2023-01-27T17:04:27.547Z,21.57
2023-01-27T17:07:05.013Z,23.23
2023-01-27T17:09:35.703Z,20.63
2023-01-27T17:12:02.905Z,20.60
2023-01-27T17:14:35.256Z,20.87
2023-01-27T17:17:06.028Z,23.83
2023-01-27T17:19:36.435Z,22.90
2023-01-27T17:22:06.997Z,22.47
2023-01-27T17:24:37.849Z,25.10
2023-01-27T17:27:30.345Z,22.63
2023-01-27T17:30:24.314Z,27.30
2023-01-27T17:32:58.334Z,25.10
2023-01-27T17:35:29.190Z,24.53
2023-01-27T17:38:15.256Z,22.27
2023-01-27T17:40:47.852Z,25.57
2023-01-27T17:43:36.965Z,18.83
2023-01-27T17:46:22.513Z,17.03
2023-01-27T17:48:54.102Z,14.67
2023-01-27T17:51:37.690Z,16.93
2023-01-27T17:54:23.152Z,18.37
2023-01-27T17:56:56.605Z,15.63
2023-01-27T17:59:26.832Z,19.27
2023-01-27T18:01:56.389Z,18.20
2023-01-27T18:04:24.264Z,20.27
2023-01-27T18:06:52.690Z,18.20
2023-01-27T18:09:26.649Z,20.73
2023-01-27T18:12:00.346Z,15.90
2023-01-27T18:14:33.944Z,20.40
2023-01-27T18:17:06.297Z,20.13
2023-01-27T18:19:34.522Z,20.87
2023-01-27T18:22:16.591Z,17.63
2023-01-27T18:25:06.064Z,16.13
2023-01-27T18:27:37.980Z,17.40
2023-01-27T18:30:14.294Z,19.33
2023-01-27T18:32:44.510Z,15.03
2023-01-27T18:35:25.699Z,15.67
2023-01-27T18:38:02.444Z,17.77
2023-01-27T18:40:31.129Z,16.40
2023-01-27T18:42:59.232Z,17.70
2023-01-27T18:45:27.383Z,15.63
2023-01-27T18:47:55.450Z,18.17
2023-01-27T18:50:25.619Z,23.77
2023-01-27T18:52:53.434Z,30.47
2023-01-27T18:55:29.336Z,22.03
2023-01-27T18:57:58.388Z,22.57
2023-01-27T19:00:30.844Z,21.97
2023-01-27T19:03:01.540Z,20.90
2023-01-27T19:05:31.869Z,22.30
2023-01-27T19:07:59.002Z,20.37
2023-01-27T19:10:30.669Z,22.53
2023-01-27T19:13:00.217Z,24.90
2023-01-27T19:15:49.610Z,22.40
2023-01-27T19:18:20.525Z,27.73
2023-01-27T19:20:47.526Z,27.70
2023-01-27T19:23:16.275Z,27.90
2023-01-27T19:25:46.714Z,30.80
2023-01-27T19:28:32.324Z,31.97
2023-01-27T19:31:00.492Z,31.13
2023-01-27T19:33:29.108Z,34.93
2023-01-27T19:36:20.996Z,37.07
2023-01-27T19:38:49.223Z,33.70
2023-01-27T19:41:16.599Z,35.97
2023-01-27T19:43:47.721Z,40.43
2023-01-27T19:46:18.648Z,42.93
2023-01-27T19:48:45.680Z,36.90
2023-01-27T19:51:13.099Z,32.00
2023-01-27T19:53:40.153Z,34.67
2023-01-27T19:56:32.497Z,34.50
2023-01-27T19:58:59.535Z,35.73
2023-01-27T20:01:26.878Z,36.03
2023-01-27T20:03:54.862Z,39.90
2023-01-27T20:06:24.398Z,36.93
2023-01-27T20:08:54.802Z,34.37
2023-01-27T20:11:27.621Z,36.20
2023-01-27T20:13:54.589Z,33.53
2023-01-27T20:16:22.821Z,37.77
2023-01-27T20:18:51.032Z,35.33
2023-01-27T20:21:18.698Z,33.80
2023-01-27T20:23:45.709Z,33.33
2023-01-27T20:26:15.332Z,36.57
2023-01-27T20:28:42.757Z,34.77
2023-01-27T20:31:14.953Z,32.43
2023-01-27T20:33:41.986Z,36.83
2023-01-27T20:36:14.314Z,38.13
2023-01-27T20:38:43.107Z,30.83
2023-01-27T20:41:12.948Z,32.47
2023-01-27T20:43:40.278Z,31.07
2023-01-27T20:46:13.198Z,30.30
2023-01-27T20:48:40.238Z,32.07
2023-01-27T20:51:10.081Z,32.77
2023-01-27T20:53:43.319Z,31.73
2023-01-27T20:56:10.599Z,31.37
2023-01-27T20:58:37.620Z,30.53
2023-01-27T21:01:13.783Z,30.30
2023-01-27T21:03:41.780Z,31.97
2023-01-27T21:06:10.758Z,29.57
2023-01-27T21:08:38.018Z,26.30
2023-01-27T21:11:07.990Z,26.67
2023-01-27T21:13:35.018Z,28.77
2023-01-27T21:16:02.551Z,28.13
2023-01-27T21:18:30.540Z,28.67
2023-01-27T21:21:02.803Z,30.23
2023-01-27T21:23:33.350Z,27.37
2023-01-27T21:26:11.844Z,27.73
2023-01-27T21:28:39.180Z,29.83
2023-01-27T21:31:11.465Z,27.40
2023-01-27T21:33:39.738Z,30.53
2023-01-27T21:36:10.464Z,28.40
2023-01-27T21:38:38.664Z,29.53
2023-01-27T21:41:10.710Z,29.30
2023-01-27T21:43:56.519Z,30.00
2023-01-27T21:46:24.633Z,24.30
2023-01-27T21:48:51.688Z,18.80
2023-01-27T21:51:18.883Z,17.83
2023-01-27T21:53:45.910Z,17.43
2023-01-27T21:56:13.482Z,20.17
2023-01-27T21:58:41.044Z,20.20
2023-01-27T22:01:11.689Z,21.17
2023-01-27T22:03:39.298Z,19.93
2023-01-27T22:06:08.024Z,20.13
2023-01-27T22:08:36.348Z,19.53
2023-01-27T22:11:04.759Z,20.80
2023-01-27T22:13:32.267Z,21.53
2023-01-27T22:16:00.385Z,19.43
2023-01-27T22:18:27.494Z,21.53
2023-01-27T22:20:54.604Z,23.27
2023-01-27T22:23:23.823Z,16.50
2023-01-27T22:25:52.496Z,22.57
2023-01-27T22:28:24.157Z,29.13
2023-01-27T22:30:51.507Z,25.60
2023-01-27T22:33:18.897Z,28.80
2023-01-27T22:35:46.280Z,32.87
2023-01-27T22:38:13.959Z,31.30
2023-01-27T22:40:41.317Z,33.67
2023-01-27T22:43:10.887Z,36.67
2023-01-27T22:45:41.111Z,32.57
2023-01-27T22:48:09.121Z,36.57
2023-01-27T22:50:37.468Z,36.80
2023-01-27T22:53:05.538Z,34.17
2023-01-27T22:55:33.061Z,32.80
2023-01-27T22:58:00.554Z,33.90
2023-01-27T23:00:27.588Z,35.07
2023-01-27T23:02:54.951Z,35.20
2023-01-27T23:05:22.014Z,34.67
2023-01-27T23:07:49.251Z,33.30
2023-01-27T23:10:17.120Z,29.27
2023-01-27T23:12:44.634Z,33.30
2023-01-27T23:15:13.562Z,34.60
2023-01-27T23:17:41.058Z,33.33
2023-01-27T23:20:09.156Z,34.20
2023-01-27T23:22:37.009Z,34.90
2023-01-27T23:25:04.659Z,26.77
2023-01-27T23:27:32.941Z,25.67
2023-01-27T23:30:00.180Z,23.80
2023-01-27T23:32:27.675Z,21.97
2023-01-27T23:34:54.939Z,20.27
2023-01-27T23:37:22.234Z,21.00
2023-01-27T23:39:50.379Z,22.20
2023-01-27T23:42:18.578Z,20.00
2023-01-27T23:44:47.299Z,20.63
2023-01-27T23:47:16.860Z,19.23
2023-01-27T23:49:44.127Z,18.67
2023-01-27T23:52:11.259Z,18.53
2023-01-27T23:54:38.958Z,21.30
2023-01-27T23:57:06.474Z,21.13
2023-01-27T23:59:33.565Z,22.57
